createdAt,value
2023-05-06T00:01:58.802Z,16.15
2023-05-06T00:04:45.976Z,16.63
2023-05-06T00:07:33.219Z,14.82
2023-05-06T00:10:21.304Z,16.05
2023-05-06T00:13:08.569Z,16.38
2023-05-06T00:15:55.785Z,16.20
2023-05-06T00:18:42.989Z,18.65
2023-05-06T00:21:30.204Z,17.20
2023-05-06T00:24:17.362Z,17.52
2023-05-06T00:27:04.532Z,15.82
2023-05-06T00:29:51.846Z,16.58
2023-05-06T00:32:39.099Z,23.23
2023-05-06T00:35:26.487Z,21.20
2023-05-06T00:38:15.452Z,20.65
2023-05-06T00:41:03.419Z,20.40
2023-05-06T00:43:50.712Z,20.10
2023-05-06T00:46:38.240Z,18.20
2023-05-06T00:49:26.276Z,21.00
2023-05-06T00:52:14.953Z,18.55
2023-05-06T00:55:02.835Z,18.15
2023-05-06T00:57:51.875Z,16.65
2023-05-06T01:00:39.097Z,18.48
2023-05-06T01:03:26.443Z,17.73
2023-05-06T01:06:20.671Z,16.38
2023-05-06T01:09:33.962Z,19.45
2023-05-06T01:12:32.425Z,19.02
2023-05-06T01:15:55.944Z,18.70
2023-05-06T01:18:43.756Z,19.45
2023-05-06T01:21:35.045Z,18.88
2023-05-06T01:24:35.179Z,21.63
2023-05-06T01:27:23.028Z,19.50
2023-05-06T01:30:10.830Z,23.08
2023-05-06T01:33:07.341Z,17.98
2023-05-06T01:36:08.184Z,18.95
2023-05-06T01:39:02.243Z,18.38
2023-05-06T01:41:50.658Z,24.15
2023-05-06T01:44:39.541Z,18.15
2023-05-06T01:47:27.003Z,21.65
2023-05-06T01:50:14.349Z,21.42
2023-05-06T01:53:03.410Z,23.02
2023-05-06T01:55:50.680Z,24.42
2023-05-06T01:58:38.392Z,21.27
2023-05-06T02:01:25.975Z,21.80
2023-05-06T02:04:13.163Z,26.70
2023-05-06T02:07:00.875Z,18.75
2023-05-06T02:09:48.065Z,17.23
2023-05-06T02:12:36.592Z,20.40
2023-05-06T02:15:23.838Z,24.83
2023-05-06T02:18:12.185Z,24.60
2023-05-06T02:20:59.439Z,21.80
2023-05-06T02:23:46.699Z,22.25
2023-05-06T02:26:34.227Z,20.98
2023-05-06T02:29:21.495Z,19.70
2023-05-06T02:32:08.683Z,24.70
2023-05-06T02:34:55.942Z,20.88
2023-05-06T02:37:43.124Z,21.15
2023-05-06T02:40:30.372Z,18.05
2023-05-06T02:43:19.130Z,18.77
2023-05-06T02:46:06.278Z,21.23
2023-05-06T02:48:53.454Z,21.40
2023-05-06T02:51:40.555Z,18.05
2023-05-06T02:54:27.755Z,22.00
2023-05-06T02:57:15.037Z,19.65
2023-05-06T03:00:02.595Z,19.45
2023-05-06T03:02:49.955Z,19.55
2023-05-06T03:05:37.157Z,20.77
2023-05-06T03:08:24.576Z,20.85
2023-05-06T03:11:12.190Z,22.30
2023-05-06T03:13:59.441Z,18.88
2023-05-06T03:16:46.930Z,19.40
2023-05-06T03:19:34.835Z,17.25
2023-05-06T03:22:22.363Z,20.02
2023-05-06T03:25:10.483Z,22.05
2023-05-06T03:27:59.907Z,20.98
2023-05-06T03:30:48.713Z,19.73
2023-05-06T03:33:36.662Z,17.23
2023-05-06T03:36:29.112Z,16.70
2023-05-06T03:39:16.351Z,17.13
2023-05-06T03:42:07.159Z,19.50
2023-05-06T03:44:57.387Z,21.55
2023-05-06T03:47:45.494Z,24.60
2023-05-06T03:50:33.283Z,24.13
2023-05-06T03:53:20.766Z,25.08
2023-05-06T03:56:09.721Z,24.33
2023-05-06T03:58:58.841Z,23.40
2023-05-06T04:01:48.244Z,23.63
2023-05-06T04:04:36.652Z,23.58
2023-05-06T04:07:23.875Z,21.23
2023-05-06T04:10:11.535Z,24.25
2023-05-06T04:12:59.484Z,21.83
2023-05-06T04:15:53.538Z,19.75
2023-05-06T04:18:46.184Z,23.00
2023-05-06T04:21:35.792Z,22.23
2023-05-06T04:24:31.298Z,22.05
2023-05-06T04:27:20.032Z,22.15
2023-05-06T04:30:08.601Z,24.50
2023-05-06T04:32:57.083Z,21.55
2023-05-06T04:35:53.876Z,20.38
2023-05-06T04:38:41.799Z,25.27
2023-05-06T04:41:31.306Z,21.90
2023-05-06T04:44:20.120Z,17.02
2023-05-06T04:47:08.203Z,16.05
2023-05-06T04:49:55.446Z,18.00
2023-05-06T04:52:44.287Z,16.90
2023-05-06T04:55:33.935Z,15.45
2023-05-06T04:58:21.306Z,15.57
2023-05-06T05:01:10.250Z,14.05
2023-05-06T05:03:57.705Z,14.65
2023-05-06T05:06:45.368Z,16.65
2023-05-06T05:09:34.066Z,18.92
2023-05-06T05:12:22.289Z,17.13
2023-05-06T05:15:12.205Z,16.83
2023-05-06T05:17:59.923Z,16.02
2023-05-06T05:20:47.351Z,17.30
2023-05-06T05:23:35.178Z,14.63
2023-05-06T05:26:22.613Z,14.68
2023-05-06T05:29:12.483Z,13.02
2023-05-06T05:31:59.616Z,14.48
2023-05-06T05:34:47.017Z,16.20
2023-05-06T05:37:34.443Z,12.55
2023-05-06T05:40:21.978Z,11.70
2023-05-06T05:43:12.410Z,14.43
2023-05-06T05:46:01.839Z,13.35
2023-05-06T05:48:51.745Z,12.88
2023-05-06T05:51:41.521Z,15.63
2023-05-06T05:54:30.612Z,13.18
2023-05-06T05:57:17.937Z,12.63
2023-05-06T06:00:05.935Z,14.50
2023-05-06T06:03:04.208Z,13.70
2023-05-06T06:05:53.140Z,11.02
2023-05-06T06:08:41.010Z,11.27
2023-05-06T06:11:29.602Z,10.35
2023-05-06T06:14:17.716Z,10.52
2023-05-06T06:17:06.617Z,12.27
2023-05-06T06:19:57.276Z,12.35
2023-05-06T06:22:44.604Z,13.25
2023-05-06T06:25:31.992Z,10.18
2023-05-06T06:28:19.208Z,9.70
2023-05-06T06:31:07.197Z,11.10
2023-05-06T06:33:55.186Z,8.57
2023-05-06T06:36:45.355Z,9.75
2023-05-06T06:39:32.847Z,9.30
2023-05-06T06:42:20.104Z,8.90
2023-05-06T06:45:20.842Z,9.75
2023-05-06T06:48:08.260Z,9.70
2023-05-06T06:50:55.533Z,7.75
2023-05-06T06:53:43.129Z,7.55
2023-05-06T06:56:30.688Z,7.38
2023-05-06T06:59:17.904Z,7.40
2023-05-06T07:02:05.045Z,7.47
2023-05-06T07:04:52.188Z,9.48
2023-05-06T07:07:39.371Z,7.53
2023-05-06T07:10:26.871Z,7.20
2023-05-06T07:13:14.933Z,7.25
2023-05-06T07:16:02.169Z,6.28
2023-05-06T07:18:50.197Z,7.18
2023-05-06T07:21:37.552Z,6.10
2023-05-06T07:24:24.790Z,8.95
2023-05-06T07:27:11.923Z,4.78
2023-05-06T07:29:59.180Z,9.32
2023-05-06T07:32:46.428Z,5.07
2023-05-06T07:35:33.618Z,6.78
2023-05-06T07:38:23.966Z,5.47
2023-05-06T07:41:11.296Z,4.63
2023-05-06T07:43:58.490Z,5.97
2023-05-06T07:46:46.345Z,6.90
2023-05-06T07:49:35.053Z,3.45
2023-05-06T07:52:23.475Z,4.78
2023-05-06T07:55:11.258Z,5.45
2023-05-06T07:57:58.711Z,4.07
2023-05-06T08:00:45.842Z,5.80
2023-05-06T08:03:33.161Z,4.32
2023-05-06T08:06:22.002Z,3.40
2023-05-06T08:09:10.163Z,4.88
2023-05-06T08:11:58.664Z,2.92
2023-05-06T08:14:46.826Z,3.42
2023-05-06T08:17:34.053Z,6.53
2023-05-06T08:20:21.486Z,5.25
2023-05-06T08:23:08.853Z,4.47
2023-05-06T08:25:56.149Z,3.08
2023-05-06T08:28:43.370Z,3.10
2023-05-06T08:31:30.765Z,2.67
2023-05-06T08:34:22.616Z,2.35
2023-05-06T08:37:09.916Z,3.47
2023-05-06T08:39:59.328Z,2.35
2023-05-06T08:42:49.117Z,3.22
2023-05-06T08:45:36.531Z,1.70
2023-05-06T08:48:23.797Z,1.77
2023-05-06T08:51:15.293Z,2.13
2023-05-06T08:54:04.068Z,3.20
2023-05-06T08:56:53.613Z,2.75
2023-05-06T08:59:42.662Z,2.35
2023-05-06T09:02:30.074Z,2.72
2023-05-06T09:05:17.788Z,1.92
2023-05-06T09:08:05.528Z,3.17
2023-05-06T09:10:53.624Z,1.63
2023-05-06T09:13:40.927Z,1.13
2023-05-06T09:16:30.654Z,2.95
2023-05-06T09:19:19.764Z,1.42
2023-05-06T09:22:06.935Z,5.13
2023-05-06T09:24:58.442Z,6.00
2023-05-06T09:27:45.837Z,1.40
2023-05-06T09:30:33.083Z,4.82
2023-05-06T09:33:21.901Z,3.13
2023-05-06T09:36:13.326Z,2.80
2023-05-06T09:39:00.717Z,7.50
2023-05-06T09:41:47.984Z,3.47
2023-05-06T09:44:35.643Z,4.03
2023-05-06T09:47:25.130Z,2.75
2023-05-06T09:50:14.234Z,5.90
2023-05-06T09:53:04.927Z,1.27
2023-05-06T09:58:40.649Z,2.20
2023-05-06T10:01:36.786Z,4.40
2023-05-06T10:04:26.928Z,2.35
2023-05-06T10:07:15.468Z,2.20
2023-05-06T10:10:09.193Z,2.15
2023-05-06T10:12:59.018Z,2.45
2023-05-06T10:15:48.219Z,3.00
2023-05-06T10:18:38.108Z,3.30
2023-05-06T10:21:36.869Z,5.85
2023-05-06T10:24:35.249Z,2.42
2023-05-06T10:27:24.998Z,1.67
2023-05-06T10:31:07.698Z,3.00
2023-05-06T10:33:54.891Z,4.72
2023-05-06T10:36:57.539Z,3.60
2023-05-06T10:39:45.503Z,3.33
2023-05-06T10:42:36.221Z,2.22
2023-05-06T10:46:18.685Z,2.65
2023-05-06T10:49:41.525Z,3.38
2023-05-06T10:58:38.825Z,2.58
2023-05-06T11:04:41.103Z,1.98
2023-05-06T11:07:28.949Z,1.85
2023-05-06T11:13:55.411Z,3.53
2023-05-06T11:30:44.162Z,2.37
2023-05-06T11:34:03.778Z,3.83
2023-05-06T11:36:52.197Z,2.00
2023-05-06T11:39:41.412Z,2.97
2023-05-06T11:42:29.270Z,3.55
2023-05-06T11:45:17.001Z,3.10
2023-05-06T11:48:04.231Z,3.58
2023-05-06T11:51:11.063Z,1.88
2023-05-06T11:57:21.424Z,1.42
2023-05-06T12:10:51.020Z,2.50
2023-05-06T12:13:39.069Z,1.25
2023-05-06T12:19:42.671Z,4.13
2023-05-06T12:22:29.949Z,2.88
2023-05-06T12:25:17.430Z,4.60
2023-05-06T12:28:20.987Z,3.53
2023-05-06T12:31:21.857Z,3.08
2023-05-06T12:34:09.378Z,3.78
2023-05-06T12:36:56.636Z,3.03
2023-05-06T12:39:43.901Z,2.97
2023-05-06T12:42:31.651Z,2.45
2023-05-06T12:45:19.284Z,2.08
2023-05-06T12:48:07.247Z,1.85
2023-05-06T12:50:54.724Z,2.78
2023-05-06T12:53:41.929Z,2.03
2023-05-06T12:56:29.184Z,4.82
2023-05-06T12:59:16.423Z,1.90
2023-05-06T13:02:05.466Z,1.30
2023-05-06T13:04:52.935Z,1.83
2023-05-06T13:07:41.245Z,2.75
2023-05-06T13:10:28.653Z,2.25
2023-05-06T13:13:16.672Z,3.08
2023-05-06T13:16:04.680Z,1.77
2023-05-06T13:18:52.118Z,1.48
2023-05-06T13:21:39.906Z,2.25
2023-05-06T13:24:27.127Z,1.55
2023-05-06T13:27:14.355Z,2.65
2023-05-06T13:30:01.497Z,3.25
2023-05-06T13:32:48.888Z,1.33
2023-05-06T13:35:36.201Z,2.17
2023-05-06T13:38:23.663Z,2.08
2023-05-06T13:41:11.069Z,3.10
2023-05-06T13:43:58.375Z,2.40
2023-05-06T13:46:46.494Z,2.67
2023-05-06T13:49:33.745Z,2.42
2023-05-06T13:52:21.167Z,1.75
2023-05-06T13:55:08.830Z,1.70
2023-05-06T13:57:56.242Z,3.78
2023-05-06T14:00:43.480Z,4.18
2023-05-06T14:03:30.738Z,1.55
2023-05-06T14:06:18.164Z,3.28
2023-05-06T14:09:05.408Z,4.70
2023-05-06T14:11:52.595Z,1.83
2023-05-06T14:14:39.853Z,1.83
2023-05-06T14:17:27.135Z,3.30
2023-05-06T14:20:14.419Z,2.70
2023-05-06T14:23:04.775Z,1.92
2023-05-06T14:25:52.042Z,2.83
2023-05-06T14:28:41.922Z,0.70
2023-05-06T14:31:29.765Z,3.55
2023-05-06T14:34:17.257Z,2.35
2023-05-06T14:37:05.979Z,3.45
2023-05-06T14:39:53.518Z,2.28
2023-05-06T14:42:41.447Z,1.90
2023-05-06T14:45:29.183Z,2.88
2023-05-06T14:48:16.729Z,1.60
2023-05-06T14:51:04.049Z,1.83
2023-05-06T14:53:51.427Z,1.85
2023-05-06T14:56:39.032Z,1.42
2023-05-06T14:59:26.260Z,3.58
2023-05-06T15:02:13.731Z,3.13
2023-05-06T15:05:03.810Z,1.40
2023-05-06T15:07:51.430Z,0.90
2023-05-06T15:10:38.678Z,4.10
2023-05-06T15:13:25.870Z,1.00
2023-05-06T15:16:13.154Z,1.48
2023-05-06T15:19:00.634Z,1.85
2023-05-06T15:21:48.650Z,2.80
2023-05-06T15:24:36.206Z,1.20
2023-05-06T15:27:23.576Z,2.08
2023-05-06T15:30:11.158Z,1.85
2023-05-06T15:32:58.537Z,1.27
2023-05-06T15:35:46.222Z,0.98
2023-05-06T15:39:00.158Z,2.38
2023-05-06T15:41:48.266Z,4.78
2023-05-06T15:44:37.586Z,4.18
2023-05-06T15:47:24.981Z,5.50
2023-05-06T15:50:24.612Z,1.67
2023-05-06T15:53:19.529Z,4.93
2023-05-06T15:56:17.774Z,2.45
2023-05-06T15:59:08.114Z,3.80
2023-05-06T16:04:46.238Z,3.13
2023-05-06T16:07:33.828Z,2.60
2023-05-06T16:10:21.373Z,2.47
2023-05-06T16:13:08.659Z,3.03
2023-05-06T16:15:56.477Z,1.92
2023-05-06T16:18:43.746Z,4.28
2023-05-06T16:21:31.872Z,1.92
2023-05-06T16:24:19.138Z,2.20
2023-05-06T16:27:06.577Z,2.15
2023-05-06T16:29:54.100Z,5.13
2023-05-06T16:32:41.348Z,6.50
2023-05-06T16:35:28.798Z,3.83
2023-05-06T16:38:16.254Z,4.22
2023-05-06T16:41:04.373Z,3.60
2023-05-06T16:43:51.540Z,3.42
2023-05-06T16:46:38.910Z,2.92
2023-05-06T16:49:28.090Z,3.75
2023-05-06T16:52:15.645Z,3.97
2023-05-06T16:55:03.434Z,2.55
2023-05-06T16:57:50.924Z,2.72
2023-05-06T17:00:38.068Z,2.85
2023-05-06T17:03:29.344Z,2.92
2023-05-06T17:06:19.525Z,6.28
2023-05-06T17:09:19.164Z,6.70
2023-05-06T17:15:42.592Z,2.22
2023-05-06T17:18:52.962Z,3.13
2023-05-06T17:22:00.497Z,4.55
2023-05-06T17:24:47.936Z,4.57
2023-05-06T17:27:35.328Z,9.13
2023-05-06T17:30:22.872Z,5.07
2023-05-06T17:33:14.159Z,10.05
2023-05-06T17:36:01.441Z,5.03
2023-05-06T17:38:49.023Z,4.38
2023-05-06T17:41:36.513Z,3.15
2023-05-06T17:44:23.873Z,3.38
2023-05-06T17:47:11.190Z,4.30
2023-05-06T17:49:58.703Z,2.22
2023-05-06T17:52:51.177Z,4.57
2023-05-06T17:55:38.690Z,3.30
2023-05-06T17:58:26.472Z,5.72
2023-05-06T18:01:14.481Z,6.53
2023-05-06T18:04:01.871Z,10.32
2023-05-06T18:06:49.297Z,5.90
2023-05-06T18:09:37.211Z,5.80
2023-05-06T18:12:27.655Z,2.72
2023-05-06T18:15:16.226Z,5.03
2023-05-06T18:18:03.614Z,6.47
2023-05-06T18:20:50.865Z,1.65
2023-05-06T18:23:40.630Z,5.35
2023-05-06T18:26:43.965Z,3.47
2023-05-06T18:29:33.198Z,5.88
2023-05-06T18:32:20.491Z,4.10
2023-05-06T18:35:08.479Z,2.95
2023-05-06T18:37:55.890Z,5.32
2023-05-06T18:40:43.765Z,2.42
2023-05-06T18:43:31.286Z,6.75
2023-05-06T18:46:18.576Z,2.30
2023-05-06T18:49:06.561Z,2.17
2023-05-06T18:51:54.852Z,2.80
2023-05-06T18:54:42.290Z,3.25
2023-05-06T18:57:29.888Z,4.13
2023-05-06T19:00:18.400Z,2.85
2023-05-06T19:03:05.751Z,3.38
2023-05-06T19:05:53.248Z,2.97
2023-05-06T19:08:40.802Z,2.75
2023-05-06T19:11:28.051Z,6.10
2023-05-06T19:14:15.347Z,2.67
2023-05-06T19:17:05.619Z,2.33
2023-05-06T19:19:52.946Z,2.13
2023-05-06T19:22:40.376Z,5.05
2023-05-06T19:25:27.531Z,4.45
2023-05-06T19:28:14.681Z,3.25
2023-05-06T19:31:06.758Z,2.97
2023-05-06T19:33:54.577Z,5.95
2023-05-06T19:36:41.780Z,11.07
2023-05-06T19:39:28.985Z,11.10
2023-05-06T19:42:16.189Z,12.98
2023-05-06T19:45:09.853Z,12.43
2023-05-06T19:47:57.935Z,7.07
2023-05-06T19:50:45.713Z,5.47
2023-05-06T19:53:34.080Z,6.00
2023-05-06T19:56:21.466Z,7.20
2023-05-06T19:59:09.104Z,4.25
2023-05-06T20:01:58.878Z,6.65
2023-05-06T20:04:46.397Z,4.55
2023-05-06T20:07:33.925Z,4.25
2023-05-06T20:10:21.184Z,8.65
2023-05-06T20:13:08.643Z,8.63
2023-05-06T20:15:57.456Z,4.90
2023-05-06T20:18:45.242Z,7.28
2023-05-06T20:21:32.445Z,9.43
2023-05-06T20:24:19.648Z,17.27
2023-05-06T20:27:06.834Z,16.50
2023-05-06T20:29:53.971Z,11.02
2023-05-06T20:32:41.307Z,7.57
2023-05-06T20:35:28.671Z,6.50
2023-05-06T20:38:17.023Z,3.30
2023-05-06T20:41:04.323Z,3.08
2023-05-06T20:43:52.901Z,5.18
2023-05-06T20:46:40.329Z,3.17
2023-05-06T20:49:27.600Z,4.93
2023-05-06T20:52:14.914Z,3.78
2023-05-06T20:55:02.569Z,11.13
2023-05-06T20:57:50.000Z,8.68
2023-05-06T21:00:37.232Z,9.43
2023-05-06T21:03:25.699Z,8.20
2023-05-06T21:06:14.300Z,10.27
2023-05-06T21:09:01.485Z,15.52
2023-05-06T21:11:48.712Z,8.73
2023-05-06T21:14:35.788Z,6.28
2023-05-06T21:17:22.993Z,8.25
2023-05-06T21:20:10.761Z,10.32
2023-05-06T21:22:58.006Z,9.38
2023-05-06T21:25:45.684Z,9.35
2023-05-06T21:28:32.865Z,8.30
2023-05-06T21:31:23.109Z,9.70
2023-05-06T21:34:10.645Z,7.32
2023-05-06T21:36:57.812Z,8.20
2023-05-06T21:39:45.005Z,6.45
2023-05-06T21:42:32.350Z,4.00
2023-05-06T21:45:20.433Z,7.85
2023-05-06T21:48:07.627Z,6.85
2023-05-06T21:50:58.188Z,5.97
2023-05-06T21:53:50.094Z,3.83
2023-05-06T21:56:37.233Z,7.13
2023-05-06T21:59:24.355Z,8.52
2023-05-06T22:02:12.151Z,4.38
2023-05-06T22:04:59.457Z,6.07
2023-05-06T22:07:46.631Z,6.53
2023-05-06T22:10:33.739Z,5.65
2023-05-06T22:13:22.894Z,6.40
2023-05-06T22:16:11.551Z,6.88
2023-05-06T22:18:59.362Z,5.45
2023-05-06T22:21:46.835Z,4.40
2023-05-06T22:24:34.446Z,9.15
2023-05-06T22:27:21.850Z,5.07
2023-05-06T22:30:09.792Z,5.20
2023-05-06T22:32:57.013Z,4.25
2023-05-06T22:35:47.361Z,4.63
2023-05-06T22:38:34.516Z,5.32
2023-05-06T22:41:22.203Z,5.82
2023-05-06T22:44:09.340Z,6.97
2023-05-06T22:46:56.701Z,4.53
2023-05-06T22:49:44.439Z,4.43
2023-05-06T22:52:31.583Z,4.63
2023-05-06T22:55:18.936Z,4.63
2023-05-06T22:58:06.458Z,5.20
2023-05-06T23:00:54.167Z,6.18
2023-05-06T23:03:41.529Z,5.22
2023-05-06T23:06:29.529Z,5.28
2023-05-06T23:09:16.695Z,8.40
2023-05-06T23:12:04.365Z,5.47
2023-05-06T23:14:51.645Z,6.00
2023-05-06T23:17:38.899Z,7.15
2023-05-06T23:20:26.094Z,6.63
2023-05-06T23:23:13.278Z,6.90
2023-05-06T23:25:40.712Z,6.65
2023-05-06T23:28:07.827Z,6.75
2023-05-06T23:30:55.085Z,7.93
2023-05-06T23:33:42.355Z,4.28
2023-05-06T23:36:29.597Z,4.40
2023-05-06T23:39:17.547Z,5.88
2023-05-06T23:42:04.751Z,5.82
2023-05-06T23:44:52.286Z,10.45
2023-05-06T23:47:40.914Z,4.90
2023-05-06T23:50:28.131Z,4.72
2023-05-06T23:53:15.431Z,4.38
2023-05-06T23:56:02.868Z,5.57
2023-05-06T23:58:49.969Z,5.43
